Time;durP1;ratioP1;P1;durP2;ratioP2;P2;SDS_P1;SDS_P2;PMS_P1;PMS_P2;Temp;Humidity;BMP_temperature;BMP_pressure;BME280_temperature;BME280_humidity;BME280_pressure;Samples;Min_cycle;Max_cycle;Signal;HPM_P1;HPM_P2
2024/02/22 00:01:12;;;;;;;1.40;0.80;;;10.00;99.90;;;;;;5049484;28;20507;-47
2024/02/22 00:03:41;;;;;;;1.60;1.10;;;10.00;99.90;;;;;;5051101;28;20490;-47
2024/02/22 00:06:12;;;;;;;1.67;1.17;;;10.00;99.90;;;;;;5052434;28;20449;-47
2024/02/22 00:08:40;;;;;;;1.43;1.00;;;10.00;99.90;;;;;;5045674;28;21044;-47
2024/02/22 00:11:07;;;;;;;1.33;1.10;;;10.00;99.90;;;;;;5048737;28;20487;-46
2024/02/22 00:13:38;;;;;;;1.50;1.00;;;10.00;99.90;;;;;;5051564;28;20525;-48
2024/02/22 00:16:08;;;;;;;1.83;1.30;;;10.00;99.90;;;;;;5031655;28;20969;-47
2024/02/22 00:18:38;;;;;;;2.20;0.90;;;10.00;99.90;;;;;;5047552;28;20486;-46
2024/02/22 00:21:08;;;;;;;2.03;1.17;;;10.00;99.90;;;;;;5049705;28;20518;-47
2024/02/22 00:23:37;;;;;;;2.37;1.20;;;10.00;99.90;;;;;;5052338;28;20539;-47
2024/02/22 00:26:05;;;;;;;1.67;0.80;;;10.00;99.90;;;;;;5053599;28;20436;-47
2024/02/22 00:28:35;;;;;;;1.60;0.90;;;9.90;99.90;;;;;;5030091;28;20791;-48
2024/02/22 00:31:06;;;;;;;1.50;0.70;;;10.00;99.90;;;;;;5044446;28;20447;-47
2024/02/22 00:33:36;;;;;;;1.10;0.80;;;10.00;99.90;;;;;;5045496;28;20521;-48
2024/02/22 00:36:08;;;;;;;2.83;1.40;;;10.00;99.90;;;;;;5048878;28;20805;-48
2024/02/22 00:38:37;;;;;;;1.40;0.90;;;10.00;99.90;;;;;;5048440;28;20436;-48
2024/02/22 00:41:07;;;;;;;1.30;0.73;;;10.00;99.90;;;;;;5048418;28;20427;-46
2024/02/22 00:43:38;;;;;;;2.53;0.93;;;9.90;99.90;;;;;;5048367;28;20873;-47
2024/02/22 00:46:09;;;;;;;2.70;1.20;;;10.00;99.90;;;;;;5045068;28;20475;-47
2024/02/22 00:48:37;;;;;;;1.33;0.73;;;10.00;99.90;;;;;;5049737;28;20451;-47
2024/02/22 00:51:07;;;;;;;1.57;0.80;;;10.00;99.90;;;;;;5052205;28;20439;-48
2024/02/22 00:53:36;;;;;;;1.80;0.90;;;9.90;99.90;;;;;;5046710;28;20509;-47
2024/02/22 00:56:06;;;;;;;1.60;1.00;;;10.00;99.90;;;;;;5040792;28;20454;-49
2024/02/22 00:58:35;;;;;;;2.00;0.97;;;10.00;99.90;;;;;;5043977;28;20975;-48
2024/02/22 01:01:05;;;;;;;1.30;0.70;;;10.00;99.90;;;;;;5048796;28;20447;-46
2024/02/22 01:03:36;;;;;;;1.73;1.00;;;10.00;99.90;;;;;;5039853;28;20996;-48
2024/02/22 01:06:10;;;;;;;1.67;0.93;;;10.00;99.90;;;;;;5048070;28;20494;-49
2024/02/22 01:08:38;;;;;;;1.50;1.00;;;10.00;99.90;;;;;;5047915;28;20556;-48
2024/02/22 01:11:08;;;;;;;1.40;1.03;;;10.00;99.90;;;;;;5052096;28;20818;-47
2024/02/22 01:13:37;;;;;;;1.37;1.00;;;9.90;99.90;;;;;;5049979;28;20494;-47
2024/02/22 01:16:07;;;;;;;1.40;0.90;;;10.00;99.90;;;;;;5050928;28;20435;-50
2024/02/22 01:18:39;;;;;;;1.30;0.67;;;9.90;99.90;;;;;;5046105;28;20447;-47
2024/02/22 01:21:07;;;;;;;1.10;0.73;;;9.90;99.90;;;;;;5048460;28;20939;-47
2024/02/22 01:23:37;;;;;;;1.17;0.60;;;10.00;99.90;;;;;;5046977;28;20460;-47
2024/02/22 01:26:06;;;;;;;1.87;0.83;;;9.90;99.90;;;;;;5047970;28;20453;-48
2024/02/22 01:28:34;;;;;;;1.40;1.03;;;10.00;99.90;;;;;;5049406;28;20514;-47
2024/02/22 01:31:03;;;;;;;1.20;0.70;;;9.90;99.90;;;;;;5048779;28;20508;-46
2024/02/22 01:33:32;;;;;;;1.20;0.80;;;10.00;99.90;;;;;;5042249;28;20463;-50
2024/02/22 01:36:03;;;;;;;1.43;0.90;;;9.90;99.90;;;;;;5051049;28;20452;-49
2024/02/22 01:38:32;;;;;;;1.40;1.03;;;9.90;99.90;;;;;;5045039;28;20488;-47
2024/02/22 01:41:01;;;;;;;1.10;0.77;;;9.90;99.90;;;;;;5050674;28;20852;-47
2024/02/22 01:43:34;;;;;;;3.40;1.10;;;9.90;99.90;;;;;;5045215;28;21028;-48
2024/02/22 01:46:03;;;;;;;1.20;0.90;;;9.90;99.90;;;;;;5050934;28;20439;-48
2024/02/22 01:48:33;;;;;;;1.67;0.80;;;9.90;99.90;;;;;;5043120;28;20432;-47
2024/02/22 01:51:03;;;;;;;1.10;0.63;;;9.90;99.90;;;;;;5050540;28;20433;-48
2024/02/22 01:53:33;;;;;;;1.10;0.50;;;10.00;99.90;;;;;;5045245;28;20922;-48
2024/02/22 01:56:03;;;;;;;1.20;0.77;;;9.90;99.90;;;;;;5050279;28;20447;-47
2024/02/22 01:58:34;;;;;;;2.10;1.00;;;9.90;99.90;;;;;;5046520;28;20473;-48
2024/02/22 02:01:12;;;;;;;1.40;0.80;;;9.90;99.90;;;;;;5048268;28;20438;-47
2024/02/22 02:03:42;;;;;;;1.43;0.60;;;9.90;99.90;;;;;;5038329;28;20467;-48
2024/02/22 02:06:13;;;;;;;1.40;0.80;;;9.90;99.90;;;;;;5043216;28;20443;-48
2024/02/22 02:08:41;;;;;;;1.47;1.00;;;9.90;99.90;;;;;;5047721;28;20810;-48
2024/02/22 02:11:12;;;;;;;1.70;0.97;;;9.90;99.90;;;;;;5050178;28;20432;-47
2024/02/22 02:13:42;;;;;;;1.47;0.80;;;9.90;99.90;;;;;;5032527;28;20465;-48
2024/02/22 02:16:12;;;;;;;1.30;0.63;;;9.90;99.90;;;;;;5048702;28;20487;-49
2024/02/22 02:18:41;;;;;;;1.30;0.90;;;9.90;99.90;;;;;;5048800;28;20491;-48
2024/02/22 02:21:16;;;;;;;1.43;0.70;;;9.90;99.90;;;;;;5050493;28;20440;-47
2024/02/22 02:23:56;;;;;;;1.40;0.70;;;9.90;99.90;;;;;;5049730;28;20478;-47
2024/02/22 02:26:27;;;;;;;1.13;0.70;;;9.90;99.90;;;;;;5046051;28;20435;-48
2024/02/22 02:28:56;;;;;;;1.30;0.70;;;9.90;99.90;;;;;;5043273;28;20861;-46
2024/02/22 02:31:29;;;;;;;1.13;0.70;;;9.90;99.90;;;;;;5050600;28;20734;-46
2024/02/22 02:33:57;;;;;;;1.80;0.70;;;9.90;99.90;;;;;;5045409;28;20471;-48
2024/02/22 02:36:27;;;;;;;1.17;0.70;;;9.90;99.90;;;;;;5050394;28;20479;-47
2024/02/22 02:38:56;;;;;;;1.07;0.70;;;9.90;99.90;;;;;;5047871;28;20459;-47
2024/02/22 02:41:28;;;;;;;1.03;0.50;;;9.90;99.90;;;;;;5048933;28;20452;-47
2024/02/22 02:43:56;;;;;;;1.30;0.80;;;9.90;99.90;;;;;;5047065;28;20500;-46
2024/02/22 02:46:24;;;;;;;1.37;0.77;;;9.90;99.90;;;;;;5050272;28;20446;-47
2024/02/22 02:48:57;;;;;;;1.30;0.83;;;9.90;99.90;;;;;;5048229;28;20968;-47
2024/02/22 02:51:26;;;;;;;1.40;0.83;;;9.90;99.90;;;;;;5050157;28;20482;-47
2024/02/22 02:53:56;;;;;;;1.50;1.00;;;9.90;99.90;;;;;;5044572;28;20477;-48
2024/02/22 02:56:25;;;;;;;1.50;0.90;;;9.90;99.90;;;;;;5046163;28;20443;-47
2024/02/22 02:58:55;;;;;;;1.80;0.90;;;9.90;99.90;;;;;;5030498;28;21109;-47
2024/02/22 03:01:27;;;;;;;1.37;0.80;;;9.90;99.90;;;;;;5047269;28;20578;-47
2024/02/22 03:03:55;;;;;;;1.10;0.70;;;9.90;99.90;;;;;;5042894;28;20502;-49
2024/02/22 03:06:27;;;;;;;1.20;0.70;;;9.90;99.90;;;;;;5051995;28;21432;-47
2024/02/22 03:08:56;;;;;;;1.30;1.00;;;9.90;99.90;;;;;;5052288;28;20447;-47
2024/02/22 03:11:27;;;;;;;1.23;0.90;;;9.90;99.90;;;;;;5034731;28;21556;-47
2024/02/22 03:13:58;;;;;;;1.40;0.87;;;9.90;99.90;;;;;;5053573;28;20809;-47
2024/02/22 03:16:27;;;;;;;1.20;0.70;;;9.90;99.90;;;;;;5079236;23;22487;-46
2024/02/22 03:18:56;;;;;;;1.43;0.70;;;9.90;99.90;;;;;;5001012;28;20464;-47
2024/02/22 03:21:26;;;;;;;1.20;0.80;;;9.90;99.90;;;;;;5003650;28;20440;-50
2024/02/22 03:23:55;;;;;;;1.40;0.67;;;9.90;99.90;;;;;;5005151;28;20501;-46
2024/02/22 03:26:25;;;;;;;1.30;0.40;;;9.90;99.90;;;;;;5004721;28;20446;-46
2024/02/22 03:28:54;;;;;;;1.40;1.00;;;9.90;99.90;;;;;;5005508;28;20459;-46
2024/02/22 03:31:28;;;;;;;1.60;0.80;;;9.90;99.90;;;;;;5014100;28;20460;-45
2024/02/22 03:33:57;;;;;;;1.20;0.73;;;9.90;99.90;;;;;;5009778;28;20457;-43
2024/02/22 03:36:25;;;;;;;1.10;0.50;;;9.90;99.90;;;;;;5008641;28;20852;-47
2024/02/22 03:38:56;;;;;;;1.50;0.70;;;9.90;99.90;;;;;;5011942;28;20485;-46
2024/02/22 03:41:25;;;;;;;1.90;0.70;;;9.90;99.90;;;;;;5012739;28;20441;-46
2024/02/22 03:43:55;;;;;;;1.20;0.60;;;9.90;99.90;;;;;;5007730;28;20999;-47
2024/02/22 03:46:28;;;;;;;1.70;0.70;;;9.90;99.90;;;;;;5013383;28;20434;-47
2024/02/22 03:48:56;;;;;;;1.30;0.60;;;9.90;99.90;;;;;;5007011;28;20459;-46
2024/02/22 03:51:26;;;;;;;1.97;0.73;;;9.90;99.90;;;;;;5013588;28;21560;-46
2024/02/22 03:53:56;;;;;;;0.90;0.50;;;9.90;99.90;;;;;;5010958;28;20480;-45
2024/02/22 03:56:26;;;;;;;1.10;0.60;;;9.90;99.90;;;;;;4991025;28;20804;-47
2024/02/22 03:58:57;;;;;;;1.30;0.70;;;9.90;99.90;;;;;;5010055;28;20536;-46
2024/02/22 04:01:27;;;;;;;1.30;0.90;;;9.90;99.90;;;;;;5005011;28;20532;-46
2024/02/22 04:03:57;;;;;;;1.07;0.60;;;9.90;99.90;;;;;;5001820;28;20461;-45
2024/02/22 04:06:26;;;;;;;1.10;0.63;;;9.90;99.90;;;;;;5007893;28;20442;-46
2024/02/22 04:08:57;;;;;;;1.40;0.70;;;9.90;99.90;;;;;;5011589;28;20456;-46
2024/02/22 04:11:26;;;;;;;1.10;0.60;;;9.90;99.90;;;;;;5013705;28;20443;-46
2024/02/22 04:13:56;;;;;;;1.73;0.83;;;9.90;99.90;;;;;;5007392;28;20558;-46
2024/02/22 04:16:28;;;;;;;1.40;0.97;;;9.90;99.90;;;;;;5013127;28;20869;-46
2024/02/22 04:18:56;;;;;;;1.23;0.70;;;9.90;99.90;;;;;;5006044;28;20463;-46
2024/02/22 04:21:27;;;;;;;1.20;0.70;;;9.90;99.90;;;;;;4995607;28;20453;-46
2024/02/22 04:23:55;;;;;;;1.40;0.63;;;9.90;99.90;;;;;;5012600;28;20465;-46
2024/02/22 04:26:24;;;;;;;1.07;0.60;;;9.90;99.90;;;;;;4991941;28;20838;-46
2024/02/22 04:28:53;;;;;;;1.60;1.00;;;9.90;99.90;;;;;;5012281;28;22379;-46
2024/02/22 04:31:22;;;;;;;1.20;0.60;;;9.90;99.90;;;;;;5002374;28;20457;-46
2024/02/22 04:33:55;;;;;;;1.30;1.10;;;9.90;99.90;;;;;;4999351;28;20507;-46
2024/02/22 04:36:24;;;;;;;1.10;0.70;;;9.90;99.90;;;;;;5012151;28;20434;-46
2024/02/22 04:38:54;;;;;;;1.77;0.53;;;9.90;99.90;;;;;;5012216;28;21051;-46
2024/02/22 04:41:26;;;;;;;1.10;0.57;;;9.90;99.90;;;;;;5008528;28;20449;-45
2024/02/22 04:43:56;;;;;;;1.87;0.60;;;9.90;99.90;;;;;;5008479;28;20457;-46
2024/02/22 04:46:26;;;;;;;1.10;0.60;;;9.90;99.90;;;;;;5007909;28;20446;-46
2024/02/22 04:49:00;;;;;;;1.37;0.73;;;9.90;99.90;;;;;;5007898;28;20470;-46
2024/02/22 04:51:30;;;;;;;1.43;0.80;;;9.90;99.90;;;;;;5011941;28;20524;-46
2024/02/22 04:53:59;;;;;;;1.13;0.53;;;9.90;99.90;;;;;;5007085;28;20462;-46
2024/02/22 04:56:28;;;;;;;1.20;0.63;;;9.90;99.90;;;;;;5009635;28;20460;-45
2024/02/22 04:58:57;;;;;;;1.30;0.80;;;9.90;99.90;;;;;;5007368;28;20482;-45
2024/02/22 05:01:27;;;;;;;0.90;0.40;;;9.90;99.90;;;;;;5012114;28;20932;-46
2024/02/22 05:03:58;;;;;;;1.10;0.60;;;9.90;99.90;;;;;;5006664;28;20480;-46
2024/02/22 05:06:27;;;;;;;2.77;0.90;;;9.90;99.90;;;;;;5005894;28;20512;-46
2024/02/22 05:08:56;;;;;;;1.20;0.50;;;9.90;99.90;;;;;;5004725;28;20469;-46
2024/02/22 05:11:27;;;;;;;1.20;0.70;;;9.90;99.90;;;;;;5011365;28;20433;-46
2024/02/22 05:13:59;;;;;;;1.10;0.67;;;9.90;99.90;;;;;;5006497;28;20456;-47
2024/02/22 05:16:29;;;;;;;1.03;0.50;;;9.90;99.90;;;;;;5006359;28;20457;-46
2024/02/22 05:18:59;;;;;;;1.00;0.50;;;9.90;99.90;;;;;;5007471;28;20544;-46
2024/02/22 05:21:27;;;;;;;1.10;0.50;;;9.90;99.90;;;;;;5009721;28;20490;-46
2024/02/22 05:23:56;;;;;;;3.57;0.80;;;9.90;99.90;;;;;;5005644;28;20474;-46
2024/02/22 05:26:27;;;;;;;1.10;0.40;;;9.90;99.90;;;;;;5010566;28;20977;-46
2024/02/22 05:28:55;;;;;;;1.17;0.67;;;9.90;99.90;;;;;;5010797;28;20472;-46
2024/02/22 05:31:27;;;;;;;1.10;0.50;;;9.90;99.90;;;;;;5007029;28;20421;-46
2024/02/22 05:33:57;;;;;;;1.20;0.53;;;9.90;99.90;;;;;;5005104;28;20469;-47
2024/02/22 05:36:28;;;;;;;1.00;0.40;;;9.90;99.90;;;;;;5011072;28;20535;-47
2024/02/22 05:39:00;;;;;;;1.30;0.67;;;9.90;99.90;;;;;;4993585;28;20453;-47
2024/02/22 05:41:31;;;;;;;1.20;0.60;;;9.90;99.90;;;;;;5008210;28;21034;-47
2024/02/22 05:44:00;;;;;;;1.10;0.50;;;9.90;99.90;;;;;;5013435;28;20462;-46
2024/02/22 05:46:29;;;;;;;1.67;0.83;;;9.90;99.90;;;;;;5004496;28;20451;-46
2024/02/22 05:48:57;;;;;;;1.10;0.60;;;9.90;99.90;;;;;;5006867;28;20876;-46
2024/02/22 05:51:28;;;;;;;1.07;0.43;;;9.90;99.90;;;;;;5006554;28;20439;-47
2024/02/22 05:53:57;;;;;;;1.10;0.40;;;9.90;99.90;;;;;;5008630;28;20473;-45
2024/02/22 05:56:27;;;;;;;1.10;0.50;;;9.90;99.90;;;;;;5006896;28;20449;-46
2024/02/22 05:58:55;;;;;;;1.50;0.70;;;9.90;99.90;;;;;;5005714;28;20441;-47
2024/02/22 06:01:24;;;;;;;1.10;0.53;;;9.90;99.90;;;;;;5008573;28;20527;-47
2024/02/22 06:03:55;;;;;;;1.53;0.63;;;9.90;99.90;;;;;;5002620;28;20888;-46
2024/02/22 06:06:28;;;;;;;1.10;0.60;;;9.90;99.90;;;;;;5009387;28;20440;-46
2024/02/22 06:08:57;;;;;;;1.83;0.80;;;9.90;99.90;;;;;;5003257;28;20465;-46
2024/02/22 06:11:27;;;;;;;1.10;0.53;;;9.90;99.90;;;;;;5011051;28;20438;-46
2024/02/22 06:13:56;;;;;;;1.10;0.40;;;9.90;99.90;;;;;;5008458;28;20472;-46
2024/02/22 06:16:25;;;;;;;1.10;0.60;;;9.90;99.90;;;;;;5010375;28;20495;-46
2024/02/22 06:18:56;;;;;;;1.00;0.50;;;9.90;99.90;;;;;;5004118;28;20463;-46
2024/02/22 06:21:25;;;;;;;1.20;0.70;;;9.90;99.90;;;;;;5008322;28;20520;-45
2024/02/22 06:23:58;;;;;;;1.13;0.50;;;9.90;99.90;;;;;;5010665;28;20496;-47
2024/02/22 06:26:33;;;;;;;1.20;0.53;;;9.90;99.90;;;;;;5008320;28;20511;-45
2024/02/22 06:29:02;;;;;;;1.10;0.60;;;9.90;99.90;;;;;;5002510;28;20465;-46
2024/02/22 06:31:32;;;;;;;1.60;0.70;;;9.90;99.90;;;;;;5011266;28;20442;-46
2024/02/22 06:34:02;;;;;;;1.20;0.80;;;9.90;99.90;;;;;;4998309;28;20504;-45
2024/02/22 06:36:33;;;;;;;0.90;0.43;;;9.90;99.90;;;;;;4984355;28;20850;-46
2024/02/22 06:39:04;;;;;;;1.20;0.60;;;9.90;99.90;;;;;;5007850;28;20574;-47
2024/02/22 06:41:37;;;;;;;1.20;0.63;;;9.90;99.90;;;;;;5015169;28;20430;-47
2024/02/22 06:44:07;;;;;;;1.27;0.63;;;9.90;99.90;;;;;;5003300;28;21387;-46
2024/02/22 06:46:38;;;;;;;1.70;0.90;;;9.90;99.90;;;;;;5010238;28;20484;-48
2024/02/22 06:49:09;;;;;;;1.00;0.60;;;9.90;99.90;;;;;;5009690;28;20487;-47
2024/02/22 06:51:39;;;;;;;1.10;0.60;;;9.90;99.90;;;;;;5006483;28;20434;-50
2024/02/22 06:54:12;;;;;;;1.20;0.60;;;9.90;99.90;;;;;;5007347;28;20536;-47
2024/02/22 06:56:43;;;;;;;1.07;0.50;;;9.90;99.90;;;;;;5013090;28;20846;-46
2024/02/22 06:59:18;;;;;;;1.33;0.60;;;9.90;99.90;;;;;;5015227;28;20546;-46
2024/02/22 07:01:48;;;;;;;1.13;0.50;;;9.90;99.90;;;;;;5013046;28;20500;-47
2024/02/22 07:04:18;;;;;;;1.13;0.60;;;9.90;99.90;;;;;;5007220;28;20476;-47
2024/02/22 07:06:50;;;;;;;1.47;0.87;;;9.80;99.90;;;;;;5014066;28;20441;-51
2024/02/22 07:09:22;;;;;;;1.27;0.80;;;9.90;99.90;;;;;;5012123;28;20461;-48
2024/02/22 07:11:54;;;;;;;1.40;0.67;;;9.90;99.90;;;;;;5011237;28;20442;-48
2024/02/22 07:14:28;;;;;;;1.27;0.80;;;9.90;99.90;;;;;;5007599;28;20479;-47
2024/02/22 07:16:59;;;;;;;1.20;0.67;;;9.90;99.90;;;;;;5014168;28;20508;-47
2024/02/22 07:19:33;;;;;;;1.10;0.70;;;9.90;99.90;;;;;;5009824;28;20460;-48
2024/02/22 07:22:03;;;;;;;1.57;0.63;;;9.90;99.90;;;;;;5014525;28;20433;-47
2024/02/22 07:24:37;;;;;;;1.30;0.67;;;9.90;99.90;;;;;;5005383;28;21020;-46
2024/02/22 07:27:09;;;;;;;1.20;0.50;;;9.90;99.90;;;;;;5014055;28;20442;-50
2024/02/22 07:29:39;;;;;;;1.23;0.60;;;9.90;99.90;;;;;;5014074;28;20465;-47
2024/02/22 07:32:09;;;;;;;1.10;0.60;;;9.90;99.90;;;;;;5012249;28;20434;-49
2024/02/22 07:34:43;;;;;;;1.50;0.80;;;9.90;99.90;;;;;;5006945;28;20471;-47
2024/02/22 07:37:13;;;;;;;1.30;0.63;;;9.90;99.90;;;;;;5012326;28;20424;-49
2024/02/22 07:39:45;;;;;;;1.20;0.70;;;9.90;99.90;;;;;;5013164;28;20489;-48
2024/02/22 07:42:17;;;;;;;1.13;0.60;;;9.90;99.90;;;;;;5011788;28;20440;-47
2024/02/22 07:44:53;;;;;;;1.00;0.47;;;9.80;99.90;;;;;;5005603;28;20468;-48
2024/02/22 07:47:27;;;;;;;1.40;0.80;;;9.90;99.90;;;;;;5008048;28;20806;-48
2024/02/22 07:50:05;;;;;;;1.13;0.60;;;9.90;99.90;;;;;;5010426;28;20567;-47
2024/02/22 07:52:39;;;;;;;1.53;0.70;;;9.90;99.90;;;;;;5006546;28;20453;-48
2024/02/22 07:55:13;;;;;;;1.30;0.80;;;9.90;99.90;;;;;;5008597;28;20465;-47
2024/02/22 07:57:49;;;;;;;1.30;0.60;;;9.80;99.90;;;;;;5008201;28;20449;-47
2024/02/22 08:00:18;;;;;;;1.00;0.40;;;9.90;99.90;;;;;;5029224;28;20522;-47
2024/02/22 08:02:57;;;;;;;1.40;0.90;;;9.90;99.90;;;;;;5023383;28;20939;-48
2024/02/22 08:05:43;;;;;;;1.50;0.60;;;9.90;99.90;;;;;;5041606;28;20464;-47
2024/02/22 08:08:15;;;;;;;1.50;0.77;;;9.90;99.90;;;;;;5032323;28;20486;-48
2024/02/22 08:10:49;;;;;;;1.10;0.53;;;9.90;99.90;;;;;;5036939;28;20466;-46
2024/02/22 08:13:24;;;;;;;1.47;0.70;;;9.90;99.90;;;;;;5032797;28;20439;-47
2024/02/22 08:16:02;;;;;;;1.10;0.57;;;9.90;99.90;;;;;;5047006;28;20471;-47
2024/02/22 08:18:34;;;;;;;1.30;0.70;;;9.90;99.90;;;;;;5022454;28;20467;-47
2024/02/22 08:21:08;;;;;;;1.50;0.80;;;9.90;99.90;;;;;;5032404;28;20476;-47
2024/02/22 08:23:38;;;;;;;1.10;0.50;;;9.90;99.90;;;;;;5030911;28;20899;-47
2024/02/22 08:26:09;;;;;;;1.93;0.63;;;9.90;99.90;;;;;;5026372;28;20599;-46
2024/02/22 08:28:40;;;;;;;1.13;0.57;;;9.90;99.90;;;;;;5027565;28;20432;-48
2024/02/22 08:31:13;;;;;;;1.10;0.50;;;9.90;99.90;;;;;;5023874;28;21044;-46
2024/02/22 08:33:48;;;;;;;1.47;0.83;;;9.90;99.90;;;;;;5028521;28;20967;-46
2024/02/22 08:36:19;;;;;;;1.17;0.50;;;9.90;99.90;;;;;;5027433;28;20448;-45
2024/02/22 08:38:51;;;;;;;1.70;1.00;;;9.90;99.90;;;;;;5028915;28;20445;-46
2024/02/22 08:41:23;;;;;;;1.33;0.80;;;9.90;99.90;;;;;;5026799;28;20482;-46
2024/02/22 08:43:54;;;;;;;1.23;0.57;;;9.90;99.90;;;;;;5011951;28;20463;-46
2024/02/22 08:46:25;;;;;;;1.40;0.57;;;9.90;99.90;;;;;;5011607;28;20457;-46
2024/02/22 08:48:57;;;;;;;1.60;0.50;;;9.90;99.90;;;;;;5025573;28;20436;-46
2024/02/22 08:51:28;;;;;;;1.53;0.70;;;9.90;99.90;;;;;;5026861;28;20800;-46
2024/02/22 08:53:58;;;;;;;1.13;0.57;;;9.90;99.90;;;;;;5012817;28;20452;-46
2024/02/22 08:56:35;;;;;;;1.20;0.50;;;9.90;99.90;;;;;;5031320;28;20435;-46
2024/02/22 08:59:05;;;;;;;1.40;0.70;;;9.90;99.90;;;;;;5031633;28;20445;-46
2024/02/22 09:01:37;;;;;;;1.50;0.80;;;9.90;99.90;;;;;;5022830;28;20527;-47
2024/02/22 09:04:20;;;;;;;1.30;0.60;;;9.90;99.90;;;;;;5026277;28;20472;-46
2024/02/22 09:06:52;;;;;;;1.40;0.60;;;9.90;99.90;;;;;;5030554;28;20436;-46
2024/02/22 09:09:45;;;;;;;1.57;0.67;;;9.90;99.90;;;;;;5028383;28;20463;-46
2024/02/22 09:12:40;;;;;;;1.10;0.53;;;9.90;99.90;;;;;;5029562;28;20528;-46
2024/02/22 09:15:26;;;;;;;1.10;0.60;;;9.90;99.90;;;;;;5068173;22;20548;-44
2024/02/22 09:17:56;;;;;;;1.17;0.60;;;9.90;99.90;;;;;;5022667;28;20451;-45
2024/02/22 09:20:27;;;;;;;1.60;0.80;;;10.00;99.90;;;;;;5028149;28;20424;-44
2024/02/22 09:22:56;;;;;;;1.93;0.70;;;10.00;99.90;;;;;;5025784;28;20469;-45
2024/02/22 09:25:27;;;;;;;1.23;0.60;;;10.00;99.90;;;;;;5025886;28;20483;-47
2024/02/22 09:28:01;;;;;;;1.17;0.50;;;10.10;99.90;;;;;;5028329;28;20459;-46
2024/02/22 09:30:35;;;;;;;1.57;0.57;;;10.00;99.90;;;;;;5026192;28;21068;-46
2024/02/22 09:33:10;;;;;;;1.40;0.73;;;10.10;99.90;;;;;;5019943;28;20542;-46
2024/02/22 09:35:50;;;;;;;2.00;0.70;;;10.00;99.90;;;;;;4996529;28;20464;-47
2024/02/22 09:38:20;;;;;;;1.10;0.50;;;10.00;99.90;;;;;;5015543;28;20436;-47
2024/02/22 09:40:52;;;;;;;1.87;0.70;;;10.00;99.90;;;;;;5024420;28;20473;-47
2024/02/22 09:43:27;;;;;;;1.10;0.60;;;10.00;99.90;;;;;;5027110;28;20846;-45
2024/02/22 09:46:04;;;;;;;1.20;0.80;;;10.00;99.90;;;;;;5028238;28;20460;-46
2024/02/22 09:48:36;;;;;;;1.87;0.67;;;10.00;99.90;;;;;;5021288;28;20436;-47
2024/02/22 09:51:07;;;;;;;1.00;0.50;;;10.00;99.90;;;;;;5020741;28;20484;-47
2024/02/22 09:53:38;;;;;;;1.20;0.50;;;10.00;99.90;;;;;;5030807;28;20517;-45
2024/02/22 09:56:10;;;;;;;1.00;0.50;;;10.00;99.90;;;;;;5022695;28;20455;-44
2024/02/22 09:58:43;;;;;;;1.30;0.67;;;10.00;99.90;;;;;;5013632;28;20539;-47
2024/02/22 10:01:14;;;;;;;1.47;0.43;;;10.10;99.90;;;;;;5003482;28;20545;-45
2024/02/22 10:03:48;;;;;;;1.93;0.63;;;10.00;99.90;;;;;;5007111;28;20478;-45
2024/02/22 10:06:22;;;;;;;1.27;0.53;;;10.10;99.90;;;;;;5021448;28;20434;-46
2024/02/22 10:09:03;;;;;;;1.57;0.77;;;10.10;99.90;;;;;;5017936;28;20887;-46
2024/02/22 10:11:34;;;;;;;0.90;0.37;;;10.10;99.90;;;;;;5021489;28;20440;-46
2024/02/22 10:14:13;;;;;;;1.90;0.70;;;10.10;99.90;;;;;;5025488;28;20456;-45
2024/02/22 10:16:45;;;;;;;3.23;0.70;;;10.10;99.90;;;;;;5021090;28;20931;-47
2024/02/22 10:19:26;;;;;;;1.37;0.70;;;10.10;99.90;;;;;;5025613;28;20474;-46
2024/02/22 10:22:10;;;;;;;1.30;0.67;;;10.10;99.90;;;;;;5012187;28;20551;-47
2024/02/22 10:24:38;;;;;;;1.20;0.50;;;10.10;99.90;;;;;;5012159;28;20919;-47
2024/02/22 10:27:11;;;;;;;0.90;0.40;;;10.10;99.90;;;;;;5025553;28;20979;-49
2024/02/22 10:29:54;;;;;;;1.00;0.30;;;10.10;99.90;;;;;;5022474;28;20466;-46
2024/02/22 10:32:28;;;;;;;1.30;0.70;;;10.10;99.90;;;;;;5010728;28;20440;-47
2024/02/22 10:35:11;;;;;;;1.13;0.57;;;10.10;99.90;;;;;;5024677;28;20467;-48
2024/02/22 10:37:45;;;;;;;1.00;0.50;;;10.20;99.90;;;;;;5018521;28;20505;-48
2024/02/22 10:40:13;;;;;;;1.20;0.60;;;10.20;99.90;;;;;;5027686;28;20506;-47
2024/02/22 10:42:43;;;;;;;1.30;0.70;;;10.20;99.90;;;;;;5029224;28;20818;-48
2024/02/22 10:45:15;;;;;;;1.20;0.60;;;10.20;99.90;;;;;;5023340;28;20474;-48
2024/02/22 10:47:50;;;;;;;1.30;0.40;;;10.20;99.90;;;;;;5023524;28;20452;-48
2024/02/22 10:50:29;;;;;;;1.00;0.40;;;10.20;99.90;;;;;;5001125;28;20533;-47
2024/02/22 10:53:04;;;;;;;1.27;0.57;;;10.20;99.90;;;;;;5025562;28;20555;-48
2024/02/22 10:55:40;;;;;;;1.13;0.50;;;10.20;99.90;;;;;;5018156;28;20827;-47
2024/02/22 10:58:12;;;;;;;1.40;0.70;;;10.20;99.90;;;;;;5021456;28;20447;-45
2024/02/22 11:00:44;;;;;;;1.23;0.60;;;10.20;99.90;;;;;;5014015;28;20490;-48
2024/02/22 11:03:21;;;;;;;1.10;0.47;;;10.20;99.90;;;;;;5016828;28;20465;-48
2024/02/22 11:05:53;;;;;;;1.33;0.60;;;10.20;99.90;;;;;;5019763;28;20542;-46
2024/02/22 11:08:29;;;;;;;1.10;0.50;;;10.20;99.90;;;;;;5016608;28;20846;-47
2024/02/22 11:11:10;;;;;;;1.10;0.47;;;10.20;99.90;;;;;;5017665;28;20463;-47
2024/02/22 11:13:40;;;;;;;1.07;0.50;;;10.20;99.90;;;;;;5019754;28;20996;-48
2024/02/22 11:16:17;;;;;;;1.70;1.00;;;10.20;99.90;;;;;;4999305;28;20604;-48
2024/02/22 11:18:49;;;;;;;1.20;0.60;;;10.20;99.90;;;;;;5003672;28;20966;-48
2024/02/22 11:21:29;;;;;;;1.20;0.40;;;10.20;99.90;;;;;;5001147;28;20800;-48
2024/02/22 11:24:11;;;;;;;1.10;0.43;;;10.20;99.90;;;;;;5007340;28;20477;-47
2024/02/22 11:26:44;;;;;;;1.20;0.43;;;10.20;99.90;;;;;;5028527;28;20767;-48
2024/02/22 11:29:28;;;;;;;1.07;0.40;;;10.20;99.90;;;;;;5027905;28;20464;-48
2024/02/22 11:32:06;;;;;;;1.30;0.60;;;10.10;99.90;;;;;;5030015;28;20429;-47
2024/02/22 11:34:37;;;;;;;2.47;0.50;;;10.10;99.90;;;;;;5028277;28;20502;-48
2024/02/22 11:37:11;;;;;;;1.50;0.50;;;10.20;99.90;;;;;;5031748;28;21038;-47
2024/02/22 11:39:49;;;;;;;1.40;0.57;;;10.20;99.90;;;;;;5014131;28;20468;-47
2024/02/22 11:42:32;;;;;;;1.07;0.40;;;10.20;99.90;;;;;;5022542;28;20514;-48
2024/02/22 11:45:11;;;;;;;1.10;0.47;;;10.20;99.90;;;;;;5026437;28;20463;-48
2024/02/22 11:47:48;;;;;;;1.47;0.60;;;10.20;99.90;;;;;;5024602;28;20556;-47
2024/02/22 11:50:21;;;;;;;1.20;0.40;;;10.20;99.90;;;;;;5027588;28;20473;-47
2024/02/22 11:52:55;;;;;;;1.10;0.40;;;10.20;99.90;;;;;;5031780;28;20937;-47
2024/02/22 11:55:25;;;;;;;1.20;0.60;;;10.20;99.90;;;;;;5025206;28;20492;-47
2024/02/22 11:57:55;;;;;;;1.30;0.70;;;10.20;99.90;;;;;;5010974;28;20471;-49
2024/02/22 12:00:27;;;;;;;1.10;0.50;;;10.20;99.90;;;;;;5032563;28;20465;-48
2024/02/22 12:02:59;;;;;;;1.00;0.40;;;10.20;99.90;;;;;;5029271;28;20467;-47
2024/02/22 12:05:29;;;;;;;1.30;0.50;;;10.20;99.90;;;;;;5027058;28;20499;-47
2024/02/22 12:08:01;;;;;;;1.03;0.43;;;10.20;99.90;;;;;;5028559;28;20526;-46
2024/02/22 12:10:50;;;;;;;1.50;0.50;;;10.20;99.90;;;;;;5030781;28;20467;-48
2024/02/22 12:13:23;;;;;;;1.63;0.60;;;10.20;99.90;;;;;;5030881;28;20969;-46
2024/02/22 12:16:07;;;;;;;1.10;0.50;;;10.20;99.90;;;;;;5027276;28;20476;-47
2024/02/22 12:18:41;;;;;;;1.03;0.40;;;10.20;99.90;;;;;;5024677;28;20554;-48
2024/02/22 12:21:13;;;;;;;1.30;0.57;;;10.20;99.90;;;;;;5030020;28;20548;-48
2024/02/22 12:23:45;;;;;;;1.07;0.50;;;10.20;99.90;;;;;;5034017;28;20469;-48
2024/02/22 12:26:21;;;;;;;1.00;0.60;;;10.20;99.90;;;;;;5012986;28;20517;-47
2024/02/22 12:28:54;;;;;;;1.00;0.40;;;10.20;99.90;;;;;;5030138;28;20440;-46
2024/02/22 12:31:24;;;;;;;1.20;0.57;;;10.20;99.90;;;;;;5012154;28;20999;-48
2024/02/22 12:34:00;;;;;;;1.40;0.60;;;10.20;99.90;;;;;;5030179;28;20448;-47
2024/02/22 12:36:35;;;;;;;1.10;0.40;;;10.20;99.90;;;;;;5031418;28;20429;-47
2024/02/22 12:39:08;;;;;;;1.37;0.60;;;10.20;99.90;;;;;;5022990;28;20440;-47
2024/02/22 12:41:40;;;;;;;1.00;0.40;;;10.20;99.90;;;;;;5025706;28;20444;-48
2024/02/22 12:44:12;;;;;;;1.00;0.50;;;10.30;99.90;;;;;;5031880;28;20459;-47
2024/02/22 12:46:45;;;;;;;1.30;0.60;;;10.20;99.90;;;;;;5030689;28;20528;-47
2024/02/22 12:49:21;;;;;;;1.43;0.50;;;10.20;99.90;;;;;;5023687;28;20469;-47
2024/02/22 12:51:53;;;;;;;1.20;0.60;;;10.20;99.90;;;;;;5028065;28;20979;-49
2024/02/22 12:54:29;;;;;;;1.20;0.50;;;10.30;99.90;;;;;;5027090;28;20556;-48
2024/02/22 12:57:04;;;;;;;1.30;0.60;;;10.20;99.90;;;;;;5027060;28;20429;-47
2024/02/22 12:59:33;;;;;;;1.20;0.50;;;10.30;99.90;;;;;;5007392;28;20511;-47
2024/02/22 13:02:02;;;;;;;1.10;0.50;;;10.20;99.90;;;;;;5027136;28;20437;-48
2024/02/22 13:04:35;;;;;;;1.47;0.57;;;10.30;99.90;;;;;;5026843;28;20469;-47
2024/02/22 13:07:12;;;;;;;1.20;0.47;;;10.30;99.90;;;;;;5023664;28;20472;-48
2024/02/22 13:09:45;;;;;;;1.00;0.40;;;10.20;99.90;;;;;;5017282;28;20535;-48
2024/02/22 13:12:18;;;;;;;1.10;0.50;;;10.20;99.90;;;;;;5020882;28;20448;-47
2024/02/22 13:14:50;;;;;;;1.30;0.80;;;10.30;99.90;;;;;;5016634;28;21051;-47
2024/02/22 13:17:21;;;;;;;0.97;0.40;;;10.30;99.90;;;;;;5021588;28;20444;-50